Time;durP1;ratioP1;P1;durP2;ratioP2;P2;SDS_P1;SDS_P2;PMS_P1;PMS_P2;Temp;Humidity;BMP_temperature;BMP_pressure;BME280_temperature;BME280_humidity;BME280_pressure;Samples;Min_cycle;Max_cycle;Signal;HPM_P1;HPM_P2
2021/09/12 00:01:21;;;;;;;35.75;22.80;;;17.40;99.90;;;;;;5107372;28;20052;-68
2021/09/12 00:03:46;;;;;;;40.00;25.60;;;17.30;99.90;;;;;;5069621;28;20048;-68
2021/09/12 00:06:12;;;;;;;36.70;24.23;;;17.40;99.90;;;;;;5079482;28;20083;-69
2021/09/12 00:08:38;;;;;;;34.83;22.58;;;17.40;99.90;;;;;;5078430;28;20040;-68
2021/09/12 00:11:04;;;;;;;37.30;23.75;;;17.40;99.90;;;;;;5083363;28;20045;-68
2021/09/12 00:13:30;;;;;;;35.15;24.15;;;17.40;99.90;;;;;;5081720;28;20147;-68
2021/09/12 00:15:56;;;;;;;38.92;23.63;;;17.40;99.90;;;;;;5075766;28;20068;-69
2021/09/12 00:18:21;;;;;;;32.25;22.90;;;17.40;99.90;;;;;;5079490;28;20033;-68
2021/09/12 00:20:47;;;;;;;39.22;25.13;;;17.40;99.90;;;;;;5087879;28;20044;-68
2021/09/12 00:23:13;;;;;;;36.97;23.33;;;17.40;99.90;;;;;;5077569;28;20080;-68
2021/09/12 00:25:39;;;;;;;39.33;25.13;;;17.40;99.90;;;;;;5061006;28;20048;-68
2021/09/12 00:28:05;;;;;;;36.38;23.90;;;17.40;99.90;;;;;;5085013;28;20044;-68
2021/09/12 00:30:31;;;;;;;34.10;22.90;;;17.40;99.90;;;;;;5075125;28;20040;-68
2021/09/12 00:32:56;;;;;;;37.70;23.92;;;17.40;99.90;;;;;;5084701;28;20577;-68
2021/09/12 00:35:22;;;;;;;34.00;22.42;;;17.50;99.90;;;;;;5086043;28;20154;-68
2021/09/12 00:37:50;;;;;;;38.38;24.00;;;17.40;99.90;;;;;;5079417;28;20051;-68
2021/09/12 00:40:19;;;;;;;35.80;22.52;;;17.40;99.90;;;;;;5079824;28;20051;-68
2021/09/12 00:42:44;;;;;;;36.72;24.20;;;17.40;99.90;;;;;;5052515;28;20051;-68
2021/09/12 00:45:11;;;;;;;39.92;24.52;;;17.40;99.90;;;;;;5063915;28;20053;-68
2021/09/12 00:47:37;;;;;;;39.08;24.92;;;17.40;99.90;;;;;;5077874;28;20500;-68
2021/09/12 00:50:04;;;;;;;40.55;24.23;;;17.40;99.90;;;;;;5084799;28;20043;-68
2021/09/12 00:52:33;;;;;;;35.35;23.45;;;17.30;99.90;;;;;;5074027;28;20075;-68
2021/09/12 00:55:01;;;;;;;43.35;25.35;;;17.30;99.90;;;;;;5079408;28;20045;-68
2021/09/12 00:57:27;;;;;;;42.22;25.50;;;17.20;99.90;;;;;;5073753;28;20045;-68
2021/09/12 00:59:54;;;;;;;38.45;23.92;;;17.20;99.90;;;;;;5075120;28;20045;-68
2021/09/12 01:02:20;;;;;;;37.97;25.38;;;17.20;99.90;;;;;;5078266;28;20052;-68
2021/09/12 01:04:47;;;;;;;42.88;25.42;;;17.20;99.90;;;;;;5079426;28;20032;-68
2021/09/12 01:07:13;;;;;;;42.70;26.27;;;17.20;99.90;;;;;;5067867;28;20045;-68
2021/09/12 01:09:40;;;;;;;37.88;23.40;;;17.10;99.90;;;;;;5083619;28;20131;-68
2021/09/12 01:12:08;;;;;;;39.05;24.45;;;17.10;99.90;;;;;;5079247;28;20041;-68
2021/09/12 01:14:34;;;;;;;42.75;26.15;;;17.00;99.90;;;;;;5073316;28;20106;-68
2021/09/12 01:17:01;;;;;;;43.17;26.33;;;17.00;99.90;;;;;;5051542;28;20049;-68
2021/09/12 01:19:27;;;;;;;35.13;23.45;;;17.00;99.90;;;;;;5075974;28;20052;-68
2021/09/12 01:21:58;;;;;;;38.92;25.20;;;17.00;99.90;;;;;;5079494;28;20064;-68
2021/09/12 01:24:25;;;;;;;46.95;26.25;;;17.00;99.90;;;;;;5083802;28;20500;-68
2021/09/12 01:26:51;;;;;;;36.88;23.30;;;17.00;99.90;;;;;;5079060;28;20053;-68
2021/09/12 01:29:17;;;;;;;40.58;25.73;;;17.00;99.90;;;;;;5083182;28;20127;-68
2021/09/12 01:31:43;;;;;;;37.92;24.75;;;17.00;99.90;;;;;;5084661;28;20046;-67
2021/09/12 01:34:09;;;;;;;42.20;25.83;;;17.10;99.90;;;;;;5077323;28;20127;-67
2021/09/12 01:36:35;;;;;;;45.45;28.40;;;17.10;99.90;;;;;;5083246;28;20078;-68
2021/09/12 01:39:01;;;;;;;52.80;28.70;;;17.10;99.90;;;;;;5081582;28;20055;-67
2021/09/12 01:41:28;;;;;;;51.47;29.48;;;17.10;99.90;;;;;;5050235;28;20037;-68
2021/09/12 01:43:57;;;;;;;48.08;27.42;;;17.10;99.90;;;;;;5074520;28;20116;-68
2021/09/12 01:46:24;;;;;;;49.55;27.45;;;17.10;99.90;;;;;;5108273;28;20045;-67
2021/09/12 01:48:51;;;;;;;55.95;28.95;;;17.00;99.90;;;;;;5080634;28;20654;-67
2021/09/12 01:51:18;;;;;;;50.08;27.48;;;17.00;99.90;;;;;;5077766;28;20037;-67
2021/09/12 01:53:44;;;;;;;43.13;26.65;;;16.90;99.90;;;;;;5084338;28;20047;-68
2021/09/12 01:56:10;;;;;;;43.85;25.85;;;16.90;99.90;;;;;;5074365;28;20049;-68
2021/09/12 01:58:36;;;;;;;41.90;25.27;;;17.00;99.90;;;;;;5071698;28;20040;-67
2021/09/12 02:01:02;;;;;;;36.80;23.92;;;17.00;99.90;;;;;;5083159;28;20063;-67
2021/09/12 02:03:28;;;;;;;36.35;24.67;;;17.00;99.90;;;;;;5079617;28;20028;-67
2021/09/12 02:05:53;;;;;;;39.22;24.48;;;17.00;99.90;;;;;;5078073;28;20413;-68
2021/09/12 02:08:19;;;;;;;45.28;25.50;;;17.00;99.90;;;;;;5066728;28;20049;-67
2021/09/12 02:10:45;;;;;;;45.65;24.75;;;17.00;99.90;;;;;;5084048;28;20443;-67
2021/09/12 02:13:11;;;;;;;45.97;26.08;;;17.00;99.90;;;;;;5070147;28;20140;-67
2021/09/12 02:15:37;;;;;;;39.17;23.50;;;17.00;99.90;;;;;;5068582;28;20102;-67
2021/09/12 02:18:03;;;;;;;46.50;25.55;;;16.90;99.90;;;;;;5081668;28;20048;-67
2021/09/12 02:20:28;;;;;;;42.38;24.55;;;16.90;99.90;;;;;;5075458;28;20037;-68
2021/09/12 02:22:54;;;;;;;40.92;24.70;;;16.90;99.90;;;;;;5080990;28;20052;-67
2021/09/12 02:25:20;;;;;;;39.88;23.88;;;16.80;99.90;;;;;;5070777;28;20039;-68
2021/09/12 02:27:45;;;;;;;39.88;23.05;;;16.80;99.90;;;;;;5071755;28;20517;-67
2021/09/12 02:30:12;;;;;;;38.50;22.67;;;16.70;99.90;;;;;;5062972;28;20052;-67
2021/09/12 02:32:37;;;;;;;38.17;23.83;;;16.70;99.90;;;;;;5073887;28;20076;-67
2021/09/12 02:35:04;;;;;;;38.60;24.13;;;16.70;99.90;;;;;;5082582;28;20064;-67
2021/09/12 02:37:29;;;;;;;40.03;23.50;;;16.70;99.90;;;;;;5081795;28;20048;-68
2021/09/12 02:39:55;;;;;;;38.45;23.33;;;16.70;99.90;;;;;;5074040;28;20033;-67
2021/09/12 02:42:21;;;;;;;41.20;24.70;;;16.60;99.90;;;;;;5083008;28;20052;-67
2021/09/12 02:44:47;;;;;;;41.25;23.45;;;16.60;99.90;;;;;;5080770;28;20057;-68
2021/09/12 02:47:12;;;;;;;36.72;22.35;;;16.60;99.90;;;;;;5065803;28;20053;-67
2021/09/12 02:49:38;;;;;;;40.30;21.95;;;16.60;99.90;;;;;;5069051;28;20049;-67
2021/09/12 02:52:04;;;;;;;38.35;20.33;;;16.50;99.90;;;;;;5072402;28;20060;-67
2021/09/12 02:54:30;;;;;;;33.28;21.55;;;16.50;99.90;;;;;;5083625;28;20104;-67
2021/09/12 02:56:56;;;;;;;33.85;22.08;;;16.40;99.90;;;;;;5072489;28;20064;-67
2021/09/12 02:59:22;;;;;;;36.70;22.50;;;16.40;99.90;;;;;;5065997;28;20045;-67
2021/09/12 03:01:47;;;;;;;38.03;21.38;;;16.40;99.90;;;;;;5077705;28;20055;-67
2021/09/12 03:04:13;;;;;;;40.33;21.92;;;16.40;99.90;;;;;;5076815;28;20044;-68
2021/09/12 03:06:39;;;;;;;35.88;22.08;;;16.40;99.90;;;;;;5082480;28;20163;-67
2021/09/12 03:09:04;;;;;;;49.10;23.88;;;16.40;99.90;;;;;;5067643;28;20106;-68
2021/09/12 03:11:31;;;;;;;39.30;24.13;;;16.40;99.90;;;;;;5078851;28;20077;-67
2021/09/12 03:13:56;;;;;;;37.63;23.88;;;16.40;99.90;;;;;;5078968;28;20052;-67
2021/09/12 03:16:24;;;;;;;44.35;25.17;;;16.40;99.90;;;;;;5082522;28;20055;-67
2021/09/12 03:18:51;;;;;;;46.97;25.17;;;16.30;99.90;;;;;;5079017;28;20049;-67
2021/09/12 03:21:18;;;;;;;50.67;26.20;;;16.30;99.90;;;;;;5080005;28;20052;-67
2021/09/12 03:23:43;;;;;;;44.72;24.92;;;16.30;99.90;;;;;;5085573;28;20102;-67
2021/09/12 03:26:09;;;;;;;49.08;25.38;;;16.30;99.90;;;;;;5045672;28;20092;-67
2021/09/12 03:28:35;;;;;;;39.30;24.25;;;16.30;99.90;;;;;;5081281;28;20055;-67
2021/09/12 03:31:01;;;;;;;50.45;26.13;;;16.20;99.90;;;;;;5078037;28;20544;-67
2021/09/12 03:33:27;;;;;;;40.78;23.13;;;16.30;99.90;;;;;;5074667;28;20086;-68
2021/09/12 03:35:53;;;;;;;40.15;23.70;;;16.20;99.90;;;;;;5077179;28;20048;-67
2021/09/12 03:38:19;;;;;;;42.22;23.23;;;16.20;99.90;;;;;;5112575;28;20591;-68
2021/09/12 03:40:44;;;;;;;40.35;24.23;;;16.20;99.90;;;;;;5077343;28;20051;-67
2021/09/12 03:43:10;;;;;;;39.55;22.80;;;16.20;99.90;;;;;;5081540;28;20045;-68
2021/09/12 03:45:36;;;;;;;37.92;21.75;;;16.20;99.90;;;;;;5083313;28;20052;-67
2021/09/12 03:48:02;;;;;;;37.35;21.52;;;16.20;99.90;;;;;;5080117;28;20041;-67
2021/09/12 03:50:28;;;;;;;35.50;21.63;;;16.10;99.90;;;;;;5079154;28;20037;-67
2021/09/12 03:52:55;;;;;;;32.95;20.98;;;16.10;99.90;;;;;;5084395;28;20040;-67
2021/09/12 03:55:21;;;;;;;32.53;18.77;;;16.00;99.90;;;;;;5083505;28;20049;-67
2021/09/12 03:57:46;;;;;;;39.40;20.15;;;16.00;99.90;;;;;;5081669;28;20045;-67
2021/09/12 04:00:13;;;;;;;35.40;22.30;;;16.00;99.90;;;;;;5071684;28;20058;-67
2021/09/12 04:02:39;;;;;;;35.13;20.55;;;16.00;99.90;;;;;;5082811;28;20063;-67
2021/09/12 04:05:05;;;;;;;38.55;22.65;;;16.00;99.90;;;;;;5082216;28;20048;-67
2021/09/12 04:07:31;;;;;;;37.47;23.23;;;16.00;99.90;;;;;;5080457;28;20131;-67
2021/09/12 04:09:56;;;;;;;35.90;21.17;;;16.00;99.90;;;;;;5070985;28;20080;-67
2021/09/12 04:12:22;;;;;;;40.10;21.85;;;16.00;99.90;;;;;;5084560;28;20049;-67
2021/09/12 04:14:48;;;;;;;36.08;20.95;;;16.00;99.90;;;;;;5064739;28;20104;-67
2021/09/12 04:17:14;;;;;;;37.10;21.83;;;16.00;99.90;;;;;;5085226;28;20052;-67
2021/09/12 04:19:40;;;;;;;32.75;21.23;;;16.00;99.90;;;;;;5084773;28;20529;-67
2021/09/12 04:22:06;;;;;;;32.90;20.58;;;16.00;99.90;;;;;;5081493;28;20108;-67
2021/09/12 04:24:31;;;;;;;36.20;21.50;;;16.00;99.90;;;;;;5083921;28;20063;-67
2021/09/12 04:26:57;;;;;;;39.08;21.17;;;15.90;99.90;;;;;;5078832;28;20040;-67
2021/09/12 04:29:23;;;;;;;36.90;21.67;;;15.90;99.90;;;;;;5078451;28;20045;-67
2021/09/12 04:31:49;;;;;;;31.92;18.33;;;15.90;99.90;;;;;;5072718;28;20040;-67
2021/09/12 04:34:15;;;;;;;33.55;18.95;;;15.90;99.90;;;;;;5074935;28;20051;-67
2021/09/12 04:36:41;;;;;;;32.55;18.98;;;15.90;99.90;;;;;;5083716;28;20101;-67
2021/09/12 04:39:07;;;;;;;35.38;19.52;;;15.80;99.90;;;;;;5084048;28;20116;-67
2021/09/12 04:41:33;;;;;;;29.63;19.05;;;15.80;99.90;;;;;;5058250;28;20044;-68
2021/09/12 04:43:59;;;;;;;32.13;19.45;;;15.80;99.90;;;;;;5081262;28;20153;-68
2021/09/12 04:46:24;;;;;;;32.90;18.30;;;15.80;99.90;;;;;;5082343;28;20103;-68
2021/09/12 04:48:50;;;;;;;34.53;19.15;;;15.80;99.90;;;;;;5080808;28;20120;-68
2021/09/12 04:51:16;;;;;;;34.83;18.60;;;15.80;99.90;;;;;;5078542;28;20036;-68
2021/09/12 04:53:41;;;;;;;32.03;17.25;;;15.80;99.90;;;;;;5077219;28;20048;-68
2021/09/12 04:56:07;;;;;;;32.67;18.23;;;15.80;99.90;;;;;;5084237;28;20045;-68
2021/09/12 04:58:33;;;;;;;35.33;19.20;;;15.80;99.90;;;;;;5077592;28;20044;-68
2021/09/12 05:00:59;;;;;;;33.22;19.85;;;15.80;99.90;;;;;;5054344;28;20037;-68
2021/09/12 05:03:24;;;;;;;31.58;17.33;;;15.80;99.90;;;;;;5072386;28;20136;-68
2021/09/12 05:05:50;;;;;;;33.58;17.95;;;15.70;99.90;;;;;;5071425;28;20051;-68
2021/09/12 05:08:16;;;;;;;27.88;16.83;;;15.70;99.90;;;;;;5083718;28;20040;-68
2021/09/12 05:10:42;;;;;;;32.53;18.35;;;15.80;99.90;;;;;;5077093;28;20417;-68
2021/09/12 05:13:08;;;;;;;32.65;17.55;;;15.80;99.90;;;;;;5046216;28;20051;-68
2021/09/12 05:15:33;;;;;;;31.13;16.77;;;15.70;99.90;;;;;;5066720;28;20107;-68
2021/09/12 05:17:59;;;;;;;27.55;17.48;;;15.70;99.90;;;;;;5066056;28;20093;-68
2021/09/12 05:20:25;;;;;;;31.15;17.27;;;15.70;99.90;;;;;;5078674;28;20044;-68
2021/09/12 05:22:51;;;;;;;30.52;16.13;;;15.70;99.90;;;;;;5081933;28;20131;-68
2021/09/12 05:25:16;;;;;;;33.08;16.98;;;15.70;99.90;;;;;;5080588;28;20126;-70
2021/09/12 05:27:42;;;;;;;25.05;14.65;;;15.80;99.90;;;;;;5079423;28;20100;-68
2021/09/12 05:30:08;;;;;;;27.40;15.75;;;15.80;99.90;;;;;;5077453;28;20123;-68
2021/09/12 05:32:34;;;;;;;23.92;15.75;;;15.80;99.90;;;;;;5082699;28;20052;-68
2021/09/12 05:35:00;;;;;;;24.63;14.13;;;15.80;99.90;;;;;;5081288;28;20041;-68
2021/09/12 05:37:26;;;;;;;28.50;15.25;;;15.80;99.90;;;;;;5080828;28;20044;-69
2021/09/12 05:39:52;;;;;;;28.92;14.38;;;15.90;99.90;;;;;;5066060;28;20044;-68
2021/09/12 05:42:18;;;;;;;22.33;13.23;;;15.90;99.90;;;;;;5080175;28;20083;-68
2021/09/12 05:44:44;;;;;;;23.02;13.65;;;16.00;99.90;;;;;;5065785;28;20061;-68
2021/09/12 05:47:10;;;;;;;24.27;13.80;;;15.90;99.90;;;;;;5075226;28;20076;-68
2021/09/12 05:49:36;;;;;;;22.00;13.95;;;16.00;99.90;;;;;;5073947;28;20103;-69
2021/09/12 05:52:02;;;;;;;25.33;12.80;;;16.00;99.90;;;;;;5073644;28;20149;-68
2021/09/12 05:54:28;;;;;;;20.00;12.77;;;16.10;99.90;;;;;;5081431;28;20420;-69
2021/09/12 05:56:53;;;;;;;26.83;14.10;;;16.10;99.90;;;;;;5047595;28;20057;-68
2021/09/12 05:59:19;;;;;;;28.52;13.43;;;16.10;99.90;;;;;;5082679;28;20039;-67
2021/09/12 06:01:45;;;;;;;21.77;12.55;;;16.20;99.90;;;;;;5064122;28;20045;-69
2021/09/12 06:04:10;;;;;;;26.08;12.98;;;16.10;99.90;;;;;;5083566;28;20040;-69
2021/09/12 06:06:36;;;;;;;25.38;12.75;;;16.20;99.90;;;;;;5081921;28;20040;-69
2021/09/12 06:09:02;;;;;;;22.33;13.20;;;16.20;99.90;;;;;;5080617;28;20039;-68
2021/09/12 06:11:28;;;;;;;24.52;13.05;;;16.20;99.90;;;;;;5083155;28;20037;-69
2021/09/12 06:13:53;;;;;;;28.67;13.32;;;16.20;99.90;;;;;;5080747;28;20048;-69
2021/09/12 06:16:19;;;;;;;22.48;12.15;;;16.20;99.90;;;;;;5081543;28;20068;-69
2021/09/12 06:18:45;;;;;;;20.52;12.77;;;16.20;99.90;;;;;;5081314;28;20060;-68
2021/09/12 06:21:11;;;;;;;20.63;11.82;;;16.20;99.90;;;;;;5074315;28;20063;-67
2021/09/12 06:23:36;;;;;;;22.30;12.07;;;16.20;99.90;;;;;;5080861;28;20051;-68
2021/09/12 06:26:03;;;;;;;24.15;12.55;;;16.20;99.90;;;;;;5083329;28;20130;-69
2021/09/12 06:28:28;;;;;;;22.42;11.23;;;16.30;99.90;;;;;;5072914;28;20045;-68
2021/09/12 06:30:54;;;;;;;22.52;11.73;;;16.30;99.90;;;;;;5080810;28;20104;-68
2021/09/12 06:33:20;;;;;;;22.38;11.02;;;16.20;99.90;;;;;;5073748;28;20094;-68
2021/09/12 06:35:46;;;;;;;23.20;12.63;;;16.20;99.90;;;;;;5070389;28;20075;-68
2021/09/12 06:38:12;;;;;;;18.63;11.00;;;16.20;99.90;;;;;;5078463;28;20062;-69
2021/09/12 06:40:37;;;;;;;21.20;12.00;;;16.30;99.90;;;;;;5075634;28;20045;-69
2021/09/12 06:43:04;;;;;;;25.00;12.00;;;16.30;99.90;;;;;;5073543;28;20040;-69
2021/09/12 06:45:30;;;;;;;20.67;11.98;;;16.30;99.90;;;;;;5079654;28;20279;-69
2021/09/12 06:47:57;;;;;;;21.05;11.82;;;16.30;99.90;;;;;;5047155;28;20036;-69
2021/09/12 06:50:24;;;;;;;23.17;12.18;;;16.40;99.90;;;;;;5081498;28;20403;-70
2021/09/12 06:52:50;;;;;;;27.17;12.30;;;16.40;99.90;;;;;;5058098;28;20093;-69
2021/09/12 06:55:16;;;;;;;21.55;11.93;;;16.40;99.90;;;;;;5077978;28;20114;-69
2021/09/12 06:57:43;;;;;;;19.83;11.82;;;16.40;99.90;;;;;;5077120;28;20052;-69
2021/09/12 07:00:10;;;;;;;23.65;12.10;;;16.50;99.90;;;;;;5085524;28;20119;-69
2021/09/12 07:02:37;;;;;;;24.38;12.07;;;16.50;99.90;;;;;;5059706;28;20128;-64
2021/09/12 07:05:04;;;;;;;14.25;10.63;;;16.50;99.90;;;;;;5080241;28;20044;-65
2021/09/12 07:07:29;;;;;;;22.13;11.93;;;16.60;99.90;;;;;;5068195;28;20056;-65
2021/09/12 07:09:55;;;;;;;22.42;11.98;;;16.60;99.90;;;;;;5080837;28;20048;-68
2021/09/12 07:12:21;;;;;;;20.58;12.38;;;16.50;99.90;;;;;;5073464;28;20095;-66
2021/09/12 07:14:47;;;;;;;19.58;11.82;;;16.60;99.90;;;;;;5077128;28;20044;-67
2021/09/12 07:17:13;;;;;;;30.17;12.88;;;16.60;99.90;;;;;;5070588;28;20052;-68
2021/09/12 07:19:39;;;;;;;22.05;11.48;;;16.70;99.90;;;;;;5083504;28;20076;-66
2021/09/12 07:22:05;;;;;;;22.13;12.23;;;16.70;99.90;;;;;;5084304;28;20040;-66
2021/09/12 07:24:32;;;;;;;21.63;12.10;;;16.70;99.90;;;;;;5095544;28;20048;-67
2021/09/12 07:26:58;;;;;;;21.30;11.40;;;16.80;99.90;;;;;;5088681;28;20055;-66
2021/09/12 07:29:24;;;;;;;20.08;11.98;;;16.80;99.90;;;;;;5077974;28;20059;-67
2021/09/12 07:31:51;;;;;;;26.08;13.55;;;16.70;99.90;;;;;;5085488;28;20045;-69
2021/09/12 07:34:16;;;;;;;24.65;12.90;;;16.80;99.90;;;;;;5076739;28;20045;-64
2021/09/12 07:36:42;;;;;;;20.42;12.38;;;16.80;99.90;;;;;;5095047;28;20036;-65
2021/09/12 07:39:08;;;;;;;21.80;13.02;;;16.90;99.90;;;;;;5080347;28;20180;-65
2021/09/12 07:41:33;;;;;;;21.90;13.13;;;16.90;99.90;;;;;;5078585;28;20172;-64
2021/09/12 07:44:00;;;;;;;22.38;13.73;;;16.90;99.90;;;;;;5079358;28;20079;-65
2021/09/12 07:46:26;;;;;;;23.55;14.32;;;16.90;99.90;;;;;;5082278;28;20477;-65
2021/09/12 07:48:52;;;;;;;20.95;13.30;;;17.10;99.90;;;;;;5080647;28;20060;-65
2021/09/12 07:51:17;;;;;;;25.52;13.57;;;17.10;99.90;;;;;;5084246;28;20072;-66
2021/09/12 07:53:43;;;;;;;25.40;13.45;;;17.10;99.90;;;;;;5081553;28;20048;-68
2021/09/12 07:56:09;;;;;;;20.60;12.60;;;17.20;99.90;;;;;;5074613;28;20045;-65
2021/09/12 07:58:35;;;;;;;23.23;13.43;;;17.20;99.90;;;;;;5075500;28;20053;-65
2021/09/12 08:01:01;;;;;;;26.15;12.57;;;17.20;99.90;;;;;;5082788;28;20044;-66
2021/09/12 08:03:26;;;;;;;20.23;12.45;;;17.20;99.90;;;;;;5081562;28;20038;-64
2021/09/12 08:05:52;;;;;;;23.95;13.27;;;17.10;99.90;;;;;;5079775;28;20052;-64
2021/09/12 08:08:19;;;;;;;23.13;12.63;;;17.10;99.90;;;;;;5080861;28;20052;-63
2021/09/12 08:10:45;;;;;;;20.75;12.70;;;17.10;99.90;;;;;;5082597;28;20079;-64
2021/09/12 08:13:11;;;;;;;23.38;14.48;;;17.10;99.90;;;;;;5079357;28;20455;-64
2021/09/12 08:15:38;;;;;;;27.90;15.15;;;17.20;99.90;;;;;;5081726;28;20056;-64
2021/09/12 08:18:05;;;;;;;19.92;14.25;;;17.40;99.90;;;;;;5084367;28;20067;-64
2021/09/12 08:20:30;;;;;;;20.13;13.95;;;17.40;99.90;;;;;;5083363;28;20174;-64
2021/09/12 08:22:56;;;;;;;22.00;14.85;;;17.50;99.90;;;;;;5082145;28;20059;-64
2021/09/12 08:25:22;;;;;;;23.25;14.43;;;17.40;99.90;;;;;;5081010;28;20063;-64
2021/09/12 08:27:48;;;;;;;20.30;14.90;;;17.50;99.90;;;;;;5079562;28;20060;-65
2021/09/12 08:30:14;;;;;;;20.42;14.25;;;17.50;99.90;;;;;;5077564;28;20044;-64
2021/09/12 08:32:40;;;;;;;20.83;14.35;;;17.60;99.90;;;;;;5081294;28;20044;-64
2021/09/12 08:35:06;;;;;;;19.83;14.27;;;17.80;99.90;;;;;;5079767;28;20067;-64
2021/09/12 08:37:34;;;;;;;21.45;14.73;;;17.80;99.90;;;;;;5078629;28;20044;-64
2021/09/12 08:40:00;;;;;;;24.38;15.65;;;18.00;99.90;;;;;;5071084;28;20051;-63
2021/09/12 08:42:26;;;;;;;21.60;14.48;;;18.00;99.90;;;;;;5081925;28;20112;-64
2021/09/12 08:44:52;;;;;;;22.58;14.18;;;18.20;99.90;;;;;;5078633;28;20073;-65
2021/09/12 08:47:18;;;;;;;20.13;14.93;;;18.30;99.90;;;;;;5081228;28;20050;-64
2021/09/12 08:49:45;;;;;;;21.67;15.02;;;18.40;99.90;;;;;;5078415;28;20095;-64
2021/09/12 08:52:12;;;;;;;20.75;14.25;;;18.30;99.90;;;;;;5082589;28;20045;-64
2021/09/12 08:54:38;;;;;;;21.35;14.60;;;18.30;99.90;;;;;;5079274;28;20048;-64
2021/09/12 08:57:04;;;;;;;20.17;15.43;;;18.40;99.90;;;;;;5076579;28;20036;-64
2021/09/12 08:59:35;;;;;;;20.42;14.55;;;18.40;99.90;;;;;;5073628;28;20170;-64
2021/09/12 09:02:08;;;;;;;21.90;15.48;;;18.40;99.90;;;;;;5065371;28;20037;-64
2021/09/12 09:04:35;;;;;;;26.73;16.45;;;18.30;99.90;;;;;;5084812;27;20544;-65
2021/09/12 09:07:07;;;;;;;25.20;17.38;;;18.30;99.90;;;;;;5074845;28;20047;-65
2021/09/12 09:09:40;;;;;;;29.45;16.90;;;18.20;99.90;;;;;;5081084;27;20378;-65
2021/09/12 09:12:22;;;;;;;24.35;17.33;;;18.10;99.90;;;;;;5090958;28;20539;-64
2021/09/12 09:15:01;;;;;;;25.27;17.00;;;18.10;99.90;;;;;;5082641;28;20070;-64
2021/09/12 09:17:27;;;;;;;27.10;17.23;;;18.30;99.90;;;;;;5076621;28;20044;-65
2021/09/12 09:19:54;;;;;;;23.25;16.60;;;18.40;99.90;;;;;;5067749;28;20127;-64
2021/09/12 09:22:34;;;;;;;26.42;16.20;;;18.40;99.90;;;;;;5083665;28;20032;-64
2021/09/12 09:25:11;;;;;;;25.52;17.25;;;18.50;99.90;;;;;;5069625;28;20043;-65
2021/09/12 09:27:58;;;;;;;25.50;17.33;;;18.60;99.90;;;;;;5059425;28;20512;-64
2021/09/12 09:30:26;;;;;;;26.20;17.27;;;18.50;99.90;;;;;;5083671;27;20073;-64
2021/09/12 09:32:51;;;;;;;24.83;18.05;;;18.50;99.90;;;;;;5116417;27;20131;-64
2021/09/12 09:35:22;;;;;;;26.30;18.35;;;18.40;99.90;;;;;;5088968;28;20074;-64
2021/09/12 09:37:48;;;;;;;26.48;18.70;;;18.40;99.90;;;;;;5081264;28;20052;-64
2021/09/12 09:40:14;;;;;;;29.23;17.65;;;18.50;99.90;;;;;;5058818;28;20135;-65
2021/09/12 09:42:44;;;;;;;33.40;20.38;;;18.60;99.90;;;;;;5080160;28;20449;-64
2021/09/12 09:45:20;;;;;;;27.23;19.92;;;18.40;99.90;;;;;;5084154;27;20051;-64
2021/09/12 09:47:48;;;;;;;27.98;18.98;;;18.30;99.90;;;;;;5105586;28;20404;-64
2021/09/12 09:50:25;;;;;;;31.60;21.48;;;18.30;99.90;;;;;;5087810;27;20039;-64
2021/09/12 09:52:54;;;;;;;33.50;21.55;;;18.20;99.90;;;;;;5096426;28;20051;-64
2021/09/12 09:55:22;;;;;;;30.67;21.08;;;18.10;99.90;;;;;;5075833;28;20046;-64
2021/09/12 09:57:55;;;;;;;30.33;20.13;;;18.10;99.90;;;;;;5064773;28;20063;-64
2021/09/12 10:00:23;;;;;;;27.33;19.88;;;18.10;99.90;;;;;;5090543;27;20055;-64
2021/09/12 10:02:50;;;;;;;28.48;19.10;;;18.10;99.90;;;;;;5102167;28;20040;-64
2021/09/12 10:05:20;;;;;;;33.42;20.83;;;18.30;99.90;;;;;;5088971;27;20044;-65
2021/09/12 10:07:46;;;;;;;34.25;20.92;;;18.20;99.90;;;;;;5100261;28;20127;-65
2021/09/12 10:10:13;;;;;;;29.80;19.95;;;18.30;99.90;;;;;;5070722;28;20554;-65
2021/09/12 10:12:45;;;;;;;33.15;21.35;;;18.40;99.90;;;;;;5099231;28;20048;-64
2021/09/12 10:15:16;;;;;;;38.55;22.67;;;18.40;99.90;;;;;;5093389;28;20075;-64
2021/09/12 10:17:44;;;;;;;37.33;22.80;;;18.40;99.90;;;;;;5088730;28;20044;-64
2021/09/12 10:20:22;;;;;;;33.78;21.08;;;18.30;99.90;;;;;;5083523;27;20101;-65
2021/09/12 10:22:56;;;;;;;36.40;22.50;;;18.20;99.90;;;;;;5103904;28;20052;-64
2021/09/12 10:25:26;;;;;;;37.10;21.75;;;18.00;99.90;;;;;;5093416;27;20058;-64
2021/09/12 10:28:03;;;;;;;38.78;22.67;;;18.10;99.90;;;;;;5096520;28;20067;-64
2021/09/12 10:30:36;;;;;;;37.97;22.00;;;18.20;99.90;;;;;;5074538;27;20048;-64
2021/09/12 10:33:05;;;;;;;37.13;22.63;;;18.10;99.90;;;;;;5095522;28;20083;-64
2021/09/12 10:35:50;;;;;;;40.53;21.90;;;18.00;99.90;;;;;;5088934;28;20044;-64
2021/09/12 10:38:32;;;;;;;35.50;20.80;;;18.00;99.90;;;;;;5081619;28;20510;-64
2021/09/12 10:41:01;;;;;;;33.65;22.23;;;18.00;99.90;;;;;;5099976;27;20108;-64
2021/09/12 10:43:34;;;;;;;31.42;20.05;;;18.20;99.90;;;;;;5099677;28;20078;-63
2021/09/12 10:46:05;;;;;;;37.60;22.55;;;18.40;99.90;;;;;;5102417;27;20147;-64
2021/09/12 10:48:32;;;;;;;36.47;22.33;;;18.30;99.90;;;;;;5101143;28;20044;-64
2021/09/12 10:51:03;;;;;;;36.00;20.67;;;18.30;99.90;;;;;;5089555;27;20059;-64
2021/09/12 10:53:55;;;;;;;34.17;22.05;;;18.40;99.90;;;;;;5103606;28;20047;-64
2021/09/12 10:56:21;;;;;;;33.40;21.63;;;18.30;99.90;;;;;;5076573;28;20148;-65
2021/09/12 10:58:49;;;;;;;32.15;21.45;;;18.30;99.90;;;;;;5077038;28;20080;-65
2021/09/12 11:01:36;;;;;;;32.67;22.30;;;18.30;99.90;;;;;;5095368;27;20051;-65
2021/09/12 11:04:03;;;;;;;36.40;21.70;;;18.30;99.90;;;;;;5071139;28;20089;-64
2021/09/12 11:06:30;;;;;;;33.13;22.20;;;18.30;99.90;;;;;;5103573;27;20255;-64
2021/09/12 11:08:57;;;;;;;33.60;20.13;;;18.40;99.90;;;;;;5093852;28;20048;-64
2021/09/12 11:11:24;;;;;;;32.35;19.38;;;18.40;99.90;;;;;;5110000;27;20047;-64
2021/09/12 11:13:54;;;;;;;35.88;20.85;;;18.60;99.90;;;;;;5098508;28;20123;-64
2021/09/12 11:16:22;;;;;;;31.63;20.23;;;18.70;99.90;;;;;;5102180;27;20043;-64
2021/09/12 11:18:59;;;;;;;34.83;22.38;;;18.80;99.90;;;;;;5092492;28;20048;-65
2021/09/12 11:21:40;;;;;;;36.28;19.95;;;18.90;99.90;;;;;;5094880;27;20049;-66
2021/09/12 11:24:09;;;;;;;30.27;19.45;;;19.00;99.90;;;;;;5097211;28;20040;-64
2021/09/12 11:26:42;;;;;;;32.43;20.10;;;19.20;99.90;;;;;;5102686;27;20086;-64
2021/09/12 11:29:11;;;;;;;31.25;20.65;;;19.10;99.90;;;;;;5099215;28;20278;-64
2021/09/12 11:31:37;;;;;;;32.95;20.35;;;19.20;99.90;;;;;;5117921;27;20468;-64
2021/09/12 11:34:04;;;;;;;25.80;19.08;;;19.20;99.90;;;;;;5101023;28;20060;-63
2021/09/12 11:36:43;;;;;;;28.80;18.38;;;19.30;99.90;;;;;;5095267;27;20054;-66
2021/09/12 11:39:09;;;;;;;28.50;18.50;;;19.30;99.90;;;;;;5091739;28;20044;-63
2021/09/12 11:41:35;;;;;;;30.83;18.65;;;19.30;99.90;;;;;;5097634;27;20515;-63
2021/09/12 11:44:01;;;;;;;28.05;17.90;;;19.40;99.90;;;;;;5069344;28;20125;-64
2021/09/12 11:46:29;;;;;;;24.70;18.33;;;19.50;99.90;;;;;;5100085;27;20570;-63
2021/09/12 11:49:04;;;;;;;26.60;18.70;;;19.60;99.90;;;;;;5096421;28;20064;-64
2021/09/12 11:51:35;;;;;;;27.30;18.17;;;19.90;99.90;;;;;;5096097;27;20072;-64
2021/09/12 11:54:21;;;;;;;23.73;17.38;;;20.00;99.90;;;;;;5069538;28;20076;-64
2021/09/12 11:56:56;;;;;;;27.00;19.00;;;20.00;99.90;;;;;;5105045;27;20059;-63
2021/09/12 11:59:23;;;;;;;28.48;18.70;;;20.00;99.90;;;;;;5081492;28;20507;-63
2021/09/12 12:01:53;;;;;;;33.47;18.35;;;19.90;99.90;;;;;;5105817;27;20170;-64
2021/09/12 12:04:20;;;;;;;27.08;17.48;;;19.80;99.90;;;;;;5097406;28;20573;-63
2021/09/12 12:06:47;;;;;;;27.80;18.75;;;20.00;99.90;;;;;;5101484;27;20113;-63
2021/09/12 12:09:16;;;;;;;26.92;17.98;;;19.90;99.90;;;;;;5089355;27;20048;-63
2021/09/12 12:11:47;;;;;;;;;;;19.90;99.90;;;;;;5113110;27;20083;-63
2021/09/12 12:14:22;;;;;;;22.83;16.48;;;19.90;99.90;;;;;;5093804;28;19923;-64
2021/09/12 12:16:48;;;;;;;28.45;18.08;;;20.10;99.90;;;;;;5119108;27;20392;-63
2021/09/12 12:19:15;;;;;;;24.98;18.33;;;20.10;99.90;;;;;;5088800;28;20052;-63
2021/09/12 12:21:43;;;;;;;27.75;17.90;;;20.10;99.90;;;;;;5089542;28;20158;-64
2021/09/12 12:24:20;;;;;;;28.02;17.88;;;19.90;99.90;;;;;;5095840;28;20040;-64
2021/09/12 12:26:52;;;;;;;24.13;17.65;;;19.90;99.90;;;;;;5095015;27;20054;-63
2021/09/12 12:29:31;;;;;;;27.05;18.52;;;19.90;99.90;;;;;;5093560;28;20067;-64